createdAt,value
2019-03-27T00:04:10.984Z,73.52
2019-03-27T00:09:13.766Z,73.11
2019-03-27T00:14:15.855Z,72.82
2019-03-27T00:19:18.622Z,72.17
2019-03-27T00:24:21.210Z,71.94
2019-03-27T00:29:23.160Z,72.01
2019-03-27T00:34:24.935Z,71.84
2019-03-27T00:39:26.973Z,72.22
2019-03-27T00:44:28.687Z,72.16
2019-03-27T00:49:30.396Z,71.60
2019-03-27T00:54:33.956Z,71.53
2019-03-27T00:59:36.086Z,71.23
2019-03-27T01:04:37.732Z,71.20
2019-03-27T01:09:39.723Z,71.40
2019-03-27T01:14:41.530Z,71.67
2019-03-27T01:19:43.174Z,72.00
2019-03-27T01:24:44.846Z,72.28
2019-03-27T01:29:46.555Z,72.54
2019-03-27T01:34:48.223Z,71.22
2019-03-27T01:39:51.230Z,70.57
2019-03-27T01:44:52.834Z,69.95
2019-03-27T01:49:54.470Z,69.51
2019-03-27T01:54:56.094Z,69.25
2019-03-27T01:59:57.747Z,69.72
2019-03-27T02:04:59.648Z,70.00
2019-03-27T02:10:01.812Z,70.55
2019-03-27T02:15:06.966Z,70.76
2019-03-27T02:20:08.778Z,70.67
2019-03-27T02:25:10.785Z,71.01
2019-03-27T02:30:12.952Z,70.21
2019-03-27T02:35:14.638Z,70.81
2019-03-27T02:40:16.240Z,70.58
2019-03-27T02:45:17.938Z,71.01
2019-03-27T02:50:19.549Z,70.37
2019-03-27T02:55:21.164Z,70.69
2019-03-27T03:00:23.210Z,70.67
2019-03-27T03:05:24.950Z,70.69
2019-03-27T03:10:26.536Z,70.71
2019-03-27T03:15:28.500Z,71.03
2019-03-27T03:20:30.096Z,70.67
2019-03-27T03:25:31.691Z,70.39
2019-03-27T03:30:34.562Z,70.67
2019-03-27T03:35:36.283Z,70.80
2019-03-27T03:40:38.087Z,70.63
2019-03-27T03:45:39.698Z,70.25
2019-03-27T03:50:42.112Z,70.67
2019-03-27T03:55:44.083Z,71.12
2019-03-27T04:00:46.314Z,71.22
2019-03-27T04:05:47.912Z,70.98
2019-03-27T04:10:49.555Z,70.50
2019-03-27T04:15:51.263Z,71.63
2019-03-27T04:20:52.881Z,71.09
2019-03-27T04:26:09.048Z,70.46
2019-03-27T04:30:58.273Z,70.37
2019-03-27T04:36:00.158Z,70.08
2019-03-27T04:41:01.976Z,69.86
2019-03-27T04:46:03.587Z,70.20
2019-03-27T04:51:05.330Z,69.59
2019-03-27T04:56:07.039Z,69.87
2019-03-27T05:01:08.702Z,69.20
2019-03-27T05:06:10.504Z,68.97
2019-03-27T05:11:12.110Z,69.24
2019-03-27T05:16:13.723Z,69.37
2019-03-27T05:21:15.893Z,68.71
2019-03-27T05:26:17.498Z,68.48
2019-03-27T05:31:19.177Z,68.02
2019-03-27T05:36:20.935Z,67.97
2019-03-27T05:41:22.535Z,67.78
2019-03-27T05:46:26.601Z,67.46
2019-03-27T05:51:27.810Z,67.50
2019-03-27T05:56:29.424Z,68.02
2019-03-27T06:01:31.094Z,68.08
2019-03-27T06:06:32.751Z,66.66
2019-03-27T06:11:34.393Z,66.68
2019-03-27T06:16:36.066Z,65.17
2019-03-27T06:21:37.686Z,64.31
2019-03-27T06:26:39.310Z,63.99
2019-03-27T06:31:40.960Z,62.57
2019-03-27T06:36:42.634Z,62.50
2019-03-27T06:41:44.363Z,62.58
2019-03-27T06:46:45.979Z,62.94
2019-03-27T06:51:47.600Z,62.12
2019-03-27T06:56:49.406Z,63.68
2019-03-27T07:01:52.164Z,60.63
2019-03-27T07:06:53.765Z,62.07
2019-03-27T07:11:55.570Z,61.99
2019-03-27T07:16:57.227Z,60.03
2019-03-27T07:21:58.835Z,60.06
2019-03-27T07:27:00.492Z,60.16
2019-03-27T07:32:02.208Z,59.61
2019-03-27T07:37:04.021Z,57.96
2019-03-27T07:42:05.625Z,57.46
2019-03-27T07:47:07.249Z,55.47
2019-03-27T07:52:08.863Z,56.54
2019-03-27T07:57:10.480Z,52.75
2019-03-27T08:02:12.093Z,51.88
2019-03-27T08:07:26.240Z,54.90
2019-03-27T08:12:17.341Z,53.76
2019-03-27T08:17:18.961Z,51.17
2019-03-27T08:22:20.587Z,50.37
2019-03-27T08:27:22.195Z,50.41
2019-03-27T08:32:23.852Z,50.16
2019-03-27T08:37:25.545Z,49.15
2019-03-27T08:42:27.164Z,49.50
2019-03-27T08:47:28.879Z,48.85
2019-03-27T08:52:30.474Z,49.17
2019-03-27T08:57:32.293Z,44.73
2019-03-27T09:02:33.901Z,44.53
2019-03-27T09:07:35.667Z,48.73
2019-03-27T09:12:37.277Z,44.16
2019-03-27T09:17:38.931Z,43.61
2019-03-27T09:22:41.645Z,45.71
2019-03-27T09:27:43.288Z,42.41
2019-03-27T09:32:45.026Z,45.03
2019-03-27T09:37:46.787Z,41.91
2019-03-27T09:42:48.434Z,40.85
2019-03-27T09:47:50.554Z,41.38
2019-03-27T09:52:52.268Z,39.29
2019-03-27T09:57:54.093Z,37.91
2019-03-27T10:02:57.222Z,41.46
2019-03-27T10:07:59.507Z,36.27
2019-03-27T10:13:01.118Z,36.55
2019-03-27T10:18:03.286Z,36.08
2019-03-27T10:23:04.889Z,41.46
2019-03-27T10:28:06.494Z,36.44
2019-03-27T10:33:08.317Z,37.20
2019-03-27T10:38:10.034Z,37.55
2019-03-27T10:43:11.641Z,37.59
2019-03-27T10:48:13.881Z,35.31
2019-03-27T10:53:15.483Z,40.15
2019-03-27T10:58:18.194Z,38.27
2019-03-27T11:03:21.138Z,41.14
2019-03-27T11:08:22.948Z,39.59
2019-03-27T11:13:24.554Z,40.95
2019-03-27T11:18:26.192Z,37.15
2019-03-27T11:23:27.844Z,37.38
2019-03-27T11:28:29.555Z,40.21
2019-03-27T11:33:31.175Z,36.80
2019-03-27T11:38:32.994Z,36.18
2019-03-27T11:43:34.955Z,36.77
2019-03-27T11:48:36.872Z,37.56
2019-03-27T11:53:38.492Z,39.44
2019-03-27T11:58:40.111Z,37.04
2019-03-27T12:03:41.726Z,38.35
2019-03-27T12:08:43.622Z,38.66
2019-03-27T12:13:45.267Z,40.30
2019-03-27T12:18:46.876Z,39.81
2019-03-27T12:23:48.495Z,36.82
2019-03-27T12:28:50.215Z,39.38
2019-03-27T12:33:51.934Z,35.71
2019-03-27T12:38:53.723Z,36.61
2019-03-27T12:43:55.391Z,37.01
2019-03-27T12:48:57.268Z,38.15
2019-03-27T12:53:58.987Z,39.54
2019-03-27T12:59:00.716Z,38.24
2019-03-27T13:04:02.948Z,35.89
2019-03-27T13:09:06.697Z,35.72
2019-03-27T13:14:09.450Z,35.29
2019-03-27T13:19:11.228Z,36.41
2019-03-27T13:24:12.954Z,35.50
2019-03-27T13:29:14.573Z,38.04
2019-03-27T13:34:16.184Z,37.35
2019-03-27T13:39:17.852Z,37.21
2019-03-27T13:44:19.678Z,37.79
2019-03-27T13:49:21.463Z,40.36
2019-03-27T13:54:23.076Z,39.55
2019-03-27T13:59:24.684Z,39.77
2019-03-27T14:04:26.508Z,39.14
2019-03-27T14:09:28.200Z,41.05
2019-03-27T14:14:30.050Z,39.47
2019-03-27T14:19:31.722Z,40.63
2019-03-27T14:24:33.336Z,42.88
2019-03-27T14:29:34.956Z,43.32
2019-03-27T14:34:36.566Z,41.54
2019-03-27T14:39:38.331Z,41.91
2019-03-27T14:44:40.047Z,39.02
2019-03-27T14:49:41.721Z,40.33
2019-03-27T14:54:43.644Z,40.86
2019-03-27T14:59:45.270Z,39.12
2019-03-27T15:04:46.874Z,39.70
2019-03-27T15:09:50.557Z,41.62
2019-03-27T15:14:53.260Z,41.21
2019-03-27T15:19:54.918Z,41.39
2019-03-27T15:24:56.518Z,42.61
2019-03-27T15:29:58.472Z,41.89
2019-03-27T15:35:00.542Z,41.79
2019-03-27T15:40:05.171Z,42.69
2019-03-27T15:45:07.994Z,43.81
2019-03-27T15:50:10.378Z,44.79
2019-03-27T15:55:12.194Z,44.75
2019-03-27T16:00:15.127Z,45.13
2019-03-27T16:05:17.165Z,46.40
2019-03-27T16:10:19.014Z,47.44
2019-03-27T16:15:20.747Z,47.17
2019-03-27T16:20:22.559Z,48.30
2019-03-27T16:25:24.270Z,47.24
2019-03-27T16:30:26.855Z,46.68
2019-03-27T16:35:28.479Z,46.43
2019-03-27T16:40:45.006Z,47.58
2019-03-27T16:45:47.133Z,47.20
2019-03-27T16:50:49.404Z,48.03
2019-03-27T16:55:51.865Z,48.18
2019-03-27T17:00:53.593Z,47.38
2019-03-27T17:05:55.204Z,47.85
2019-03-27T17:10:56.853Z,48.22
2019-03-27T17:15:58.575Z,48.14
2019-03-27T17:21:00.456Z,49.01
2019-03-27T17:26:02.557Z,49.55
2019-03-27T17:31:04.676Z,50.09
2019-03-27T17:36:06.447Z,50.06
2019-03-27T17:41:08.240Z,50.75
2019-03-27T17:46:10.098Z,49.88
2019-03-27T17:51:11.739Z,49.96
2019-03-27T17:56:13.460Z,50.52
2019-03-27T18:01:15.286Z,50.32
2019-03-27T18:06:16.968Z,50.38
2019-03-27T18:11:18.615Z,50.54
2019-03-27T18:16:20.227Z,50.51
2019-03-27T18:21:21.832Z,50.75
2019-03-27T18:26:25.135Z,50.40
2019-03-27T18:31:26.742Z,50.17
2019-03-27T18:36:28.418Z,50.35
2019-03-27T18:41:30.107Z,50.48
2019-03-27T18:46:31.700Z,50.90
2019-03-27T18:51:33.309Z,50.93
2019-03-27T18:56:34.916Z,51.19
2019-03-27T19:01:36.632Z,51.37
2019-03-27T19:06:38.888Z,51.39
2019-03-27T19:11:40.570Z,51.32
2019-03-27T19:16:44.016Z,51.35
2019-03-27T19:21:45.633Z,51.79
2019-03-27T19:26:48.510Z,51.88
2019-03-27T19:31:50.310Z,51.81
2019-03-27T19:36:52.122Z,51.85
2019-03-27T19:41:53.858Z,51.60
2019-03-27T19:46:55.670Z,51.34
2019-03-27T19:51:57.277Z,51.30
2019-03-27T19:56:59.116Z,51.25
2019-03-27T20:02:00.928Z,51.46
2019-03-27T20:07:02.778Z,51.20
2019-03-27T20:12:04.582Z,51.19
2019-03-27T20:17:06.599Z,51.34
2019-03-27T20:22:08.523Z,51.17
2019-03-27T20:27:10.340Z,51.21
2019-03-27T20:32:12.059Z,51.53
2019-03-27T20:37:13.900Z,51.45
2019-03-27T20:42:15.678Z,51.92
2019-03-27T20:47:17.432Z,51.68
2019-03-27T20:52:19.151Z,51.79
2019-03-27T20:57:20.875Z,52.01
2019-03-27T21:02:22.809Z,52.05
2019-03-27T21:07:25.950Z,52.04
2019-03-27T21:12:27.682Z,52.04
2019-03-27T21:17:29.332Z,52.43
2019-03-27T21:22:30.949Z,52.65
2019-03-27T21:27:34.777Z,52.83
2019-03-27T21:32:36.711Z,53.15
2019-03-27T21:37:38.369Z,53.59
2019-03-27T21:42:40.034Z,53.25
2019-03-27T21:47:41.696Z,53.39
2019-03-27T21:52:43.690Z,54.05
2019-03-27T21:57:46.399Z,55.65
2019-03-27T22:02:48.013Z,56.27
2019-03-27T22:07:49.615Z,57.14
2019-03-27T22:12:51.332Z,58.02
2019-03-27T22:17:52.984Z,59.30
2019-03-27T22:22:54.627Z,58.85
2019-03-27T22:27:56.390Z,59.13
2019-03-27T22:32:58.098Z,59.62
2019-03-27T22:37:59.707Z,60.29
2019-03-27T22:43:01.612Z,61.18
2019-03-27T22:48:03.531Z,61.88
2019-03-27T22:53:05.291Z,62.19
2019-03-27T22:58:06.899Z,62.20
2019-03-27T23:03:18.130Z,62.46
2019-03-27T23:08:12.119Z,62.44
2019-03-27T23:13:13.956Z,63.09
2019-03-27T23:18:15.710Z,63.44
2019-03-27T23:23:17.378Z,63.61
2019-03-27T23:28:18.983Z,63.87
2019-03-27T23:33:20.684Z,63.71
2019-03-27T23:38:22.295Z,64.50
2019-03-27T23:43:24.105Z,64.63
2019-03-27T23:48:25.942Z,64.39
2019-03-27T23:53:27.544Z,64.53
2019-03-27T23:58:29.161Z,64.56
